createdAt,value
2023-01-11T00:00:00.585Z,58.57
2023-01-11T00:02:28.570Z,58.30
2023-01-11T00:04:56.492Z,66.47
2023-01-11T00:07:24.594Z,57.00
2023-01-11T00:09:52.509Z,49.70
2023-01-11T00:12:20.438Z,41.60
2023-01-11T00:14:48.390Z,38.43
2023-01-11T00:17:17.674Z,38.33
2023-01-11T00:19:45.648Z,40.17
2023-01-11T00:22:13.598Z,168.33
2023-01-11T00:24:41.506Z,160.33
2023-01-11T00:27:09.403Z,73.07
2023-01-11T00:29:37.335Z,53.87
2023-01-11T00:32:05.555Z,112.77
2023-01-11T00:34:34.874Z,90.33
2023-01-11T00:37:02.882Z,74.70
2023-01-11T00:39:30.809Z,76.23
2023-01-11T00:42:16.186Z,65.57
2023-01-11T00:45:01.863Z,46.20
2023-01-11T00:47:47.436Z,44.83
2023-01-11T00:50:17.059Z,39.97
2023-01-11T00:52:44.946Z,69.87
2023-01-11T00:55:12.856Z,55.00
2023-01-11T00:57:40.761Z,80.90
2023-01-11T01:00:09.846Z,51.53
2023-01-11T01:02:37.917Z,44.40
2023-01-11T01:05:06.532Z,78.13
2023-01-11T01:07:35.813Z,59.43
2023-01-11T01:10:04.113Z,51.90
2023-01-11T01:12:49.806Z,38.27
2023-01-11T01:15:17.879Z,46.70
2023-01-11T01:17:46.241Z,39.47
2023-01-11T01:20:14.841Z,47.87
2023-01-11T01:22:44.281Z,41.27
2023-01-11T01:25:12.188Z,32.77
2023-01-11T01:27:40.249Z,35.33
2023-01-11T01:30:09.434Z,36.30
2023-01-11T01:32:37.345Z,36.63
2023-01-11T01:35:05.750Z,34.37
2023-01-11T01:37:33.697Z,41.63
2023-01-11T01:40:02.973Z,42.53
2023-01-11T01:42:31.715Z,43.90
2023-01-11T01:45:02.713Z,34.40
2023-01-11T01:47:37.544Z,32.77
2023-01-11T01:50:11.081Z,34.10
2023-01-11T01:52:39.573Z,31.77
2023-01-11T01:55:13.656Z,35.30
2023-01-11T01:57:44.002Z,35.30
2023-01-11T02:00:13.541Z,35.43
2023-01-11T02:02:44.717Z,36.17
2023-01-11T02:05:13.852Z,35.47
2023-01-11T02:07:43.397Z,28.73
2023-01-11T02:10:15.374Z,34.60
2023-01-11T02:12:48.903Z,35.30
2023-01-11T02:15:19.031Z,31.10
2023-01-11T02:17:47.156Z,28.77
2023-01-11T02:20:36.060Z,34.40
2023-01-11T02:23:36.432Z,35.20
2023-01-11T02:26:34.126Z,30.63
2023-01-11T02:29:10.339Z,31.90
2023-01-11T02:31:45.495Z,31.13
2023-01-11T02:34:38.472Z,37.17
2023-01-11T02:37:17.513Z,36.43
2023-01-11T02:39:59.219Z,29.10
2023-01-11T02:42:52.336Z,32.17
2023-01-11T02:45:36.723Z,31.27
2023-01-11T02:48:15.506Z,27.90
2023-01-11T02:50:50.511Z,30.17
2023-01-11T02:53:24.337Z,24.13
2023-01-11T02:55:57.784Z,25.87
2023-01-11T02:58:28.383Z,22.73
2023-01-11T03:00:58.809Z,25.50
2023-01-11T03:03:28.101Z,21.23
2023-01-11T03:05:58.777Z,26.63
2023-01-11T03:08:37.931Z,21.07
2023-01-11T03:11:11.706Z,23.27
2023-01-11T03:13:55.154Z,21.53
2023-01-11T03:16:26.876Z,23.93
2023-01-11T03:19:04.323Z,21.33
2023-01-11T03:21:54.501Z,18.23
2023-01-11T03:24:30.122Z,15.60
2023-01-11T03:27:10.008Z,17.17
2023-01-11T03:29:46.465Z,17.03
2023-01-11T03:32:23.138Z,15.10
2023-01-11T03:35:03.219Z,20.53
2023-01-11T03:37:36.033Z,15.60
2023-01-11T03:40:09.501Z,20.43
2023-01-11T03:43:00.170Z,14.73
2023-01-11T03:45:30.890Z,17.30
2023-01-11T03:48:02.575Z,17.93
2023-01-11T03:50:32.424Z,16.87
2023-01-11T03:53:04.766Z,19.17
2023-01-11T03:55:38.033Z,15.57
2023-01-11T03:58:06.406Z,16.13
2023-01-11T04:00:36.137Z,19.37
2023-01-11T04:03:06.416Z,17.47
2023-01-11T04:05:36.125Z,21.53
2023-01-11T04:08:04.091Z,16.87
2023-01-11T04:10:32.000Z,12.47
2023-01-11T04:12:59.892Z,21.80
2023-01-11T04:15:30.247Z,24.50
2023-01-11T04:18:04.649Z,25.43
2023-01-11T04:20:35.848Z,21.30
2023-01-11T04:23:03.961Z,18.73
2023-01-11T04:25:31.925Z,16.50
2023-01-11T04:28:00.458Z,27.00
2023-01-11T04:30:28.842Z,16.10
2023-01-11T04:32:58.558Z,21.47
2023-01-11T04:35:26.512Z,18.73
2023-01-11T04:37:56.089Z,18.50
2023-01-11T04:40:24.544Z,19.87
2023-01-11T04:42:51.693Z,16.13
2023-01-11T04:45:19.668Z,16.97
2023-01-11T04:47:47.635Z,16.67
2023-01-11T04:50:15.596Z,15.53
2023-01-11T04:52:43.551Z,23.17
2023-01-11T04:55:12.817Z,22.83
2023-01-11T04:57:40.786Z,22.10
2023-01-11T05:00:10.947Z,16.80
2023-01-11T05:02:39.153Z,17.10
2023-01-11T05:05:08.440Z,16.50
2023-01-11T05:07:37.507Z,18.90
2023-01-11T05:10:06.024Z,17.43
2023-01-11T05:12:35.384Z,15.27
2023-01-11T05:15:03.384Z,14.63
2023-01-11T05:17:31.473Z,18.27
2023-01-11T05:19:59.396Z,17.67
2023-01-11T05:22:27.620Z,25.87
2023-01-11T05:24:55.548Z,40.60
2023-01-11T05:27:23.476Z,34.63
2023-01-11T05:29:52.766Z,29.00
2023-01-11T05:32:20.699Z,26.33
2023-01-11T05:34:48.616Z,24.47
2023-01-11T05:37:16.535Z,24.30
2023-01-11T05:39:44.471Z,21.20
2023-01-11T05:42:12.369Z,21.23
2023-01-11T05:44:58.300Z,17.93
2023-01-11T05:47:27.599Z,21.67
2023-01-11T05:49:55.607Z,22.83
2023-01-11T05:52:23.580Z,21.57
2023-01-11T05:54:51.483Z,26.90
2023-01-11T05:57:19.440Z,28.30
2023-01-11T05:59:47.365Z,27.63
2023-01-11T06:02:15.426Z,30.33
2023-01-11T06:04:44.744Z,25.73
2023-01-11T06:07:12.665Z,21.67
2023-01-11T06:09:40.716Z,21.33
2023-01-11T06:12:08.883Z,22.43
2023-01-11T06:14:38.226Z,21.83
2023-01-11T06:17:06.264Z,23.93
2023-01-11T06:19:34.253Z,18.73
2023-01-11T06:22:03.521Z,19.77
2023-01-11T06:24:31.531Z,21.93
2023-01-11T06:26:59.453Z,17.37
2023-01-11T06:29:27.379Z,17.63
2023-01-11T06:31:55.286Z,21.43
2023-01-11T06:34:23.224Z,18.57
2023-01-11T06:36:51.155Z,24.13
2023-01-11T06:39:20.692Z,32.33
2023-01-11T06:41:48.652Z,21.23
2023-01-11T06:44:16.558Z,19.83
2023-01-11T06:46:44.507Z,37.37
2023-01-11T06:49:12.550Z,23.23
2023-01-11T06:51:40.459Z,27.13
2023-01-11T06:54:08.350Z,53.80
2023-01-11T06:56:37.595Z,93.90
2023-01-11T06:59:05.523Z,73.57
2023-01-11T07:01:33.538Z,45.10
2023-01-11T07:04:01.611Z,34.23
2023-01-11T07:06:32.043Z,65.00
2023-01-11T07:08:59.985Z,61.70
2023-01-11T07:11:27.931Z,28.97
2023-01-11T07:13:57.200Z,33.10
2023-01-11T07:16:25.158Z,33.00
2023-01-11T07:18:53.062Z,31.23
2023-01-11T07:21:20.970Z,43.53
2023-01-11T07:23:49.424Z,41.63
2023-01-11T07:26:17.691Z,34.90
2023-01-11T07:28:45.625Z,42.93
2023-01-11T07:31:14.961Z,31.37
2023-01-11T07:33:42.887Z,36.20
2023-01-11T07:36:11.005Z,29.03
2023-01-11T07:38:38.901Z,23.57
2023-01-11T07:41:27.067Z,22.43
2023-01-11T07:43:54.083Z,29.93
2023-01-11T07:46:23.506Z,26.53
2023-01-11T07:48:51.451Z,23.27
2023-01-11T07:51:22.237Z,20.57
2023-01-11T07:53:50.129Z,60.53
2023-01-11T07:56:18.070Z,39.30
2023-01-11T07:58:46.014Z,41.57
2023-01-11T08:01:14.005Z,44.63
2023-01-11T08:03:43.372Z,23.57
2023-01-11T08:06:11.408Z,30.20
2023-01-11T08:08:39.367Z,24.30
2023-01-11T08:11:24.935Z,41.43
2023-01-11T08:14:10.369Z,67.10
2023-01-11T08:16:38.343Z,28.30
2023-01-11T08:19:07.851Z,24.50
2023-01-11T08:21:35.799Z,23.83
2023-01-11T08:24:03.785Z,26.43
2023-01-11T08:26:31.755Z,31.97
2023-01-11T08:28:59.806Z,32.30
2023-01-11T08:31:27.841Z,30.67
2023-01-11T08:33:55.787Z,25.97
2023-01-11T08:36:27.605Z,36.67
2023-01-11T08:38:56.568Z,29.23
2023-01-11T08:41:25.280Z,8.20
2023-01-11T08:43:53.551Z,8.50
2023-01-11T08:46:21.709Z,16.20
2023-01-11T08:48:50.132Z,13.77
2023-01-11T08:51:18.578Z,13.67
2023-01-11T08:53:47.838Z,9.37
2023-01-11T08:56:15.761Z,9.03
2023-01-11T08:58:43.692Z,13.57
2023-01-11T09:01:12.479Z,11.67
2023-01-11T09:03:40.425Z,10.13
2023-01-11T09:06:08.507Z,9.00
2023-01-11T09:08:36.509Z,15.03
2023-01-11T09:11:25.996Z,11.43
2023-01-11T09:13:53.895Z,8.33
2023-01-11T09:16:21.864Z,16.50
2023-01-11T09:18:50.254Z,12.23
2023-01-11T09:21:18.575Z,17.10
2023-01-11T09:23:46.647Z,9.43
2023-01-11T09:26:16.785Z,9.63
2023-01-11T09:28:44.720Z,13.53
2023-01-11T09:31:12.689Z,10.03
2023-01-11T09:33:43.567Z,8.33
2023-01-11T09:36:11.944Z,18.97
2023-01-11T09:38:40.964Z,13.27
2023-01-11T09:41:28.658Z,5.97
2023-01-11T09:44:04.639Z,16.80
2023-01-11T09:46:33.474Z,15.97
2023-01-11T09:49:03.400Z,10.00
2023-01-11T09:51:37.487Z,9.43
2023-01-11T09:54:10.342Z,14.73
2023-01-11T09:56:47.105Z,8.57
2023-01-11T09:59:25.035Z,12.00
2023-01-11T10:02:03.573Z,8.67
2023-01-11T10:04:52.245Z,8.70
2023-01-11T10:07:38.665Z,12.63
2023-01-11T10:18:28.490Z,8.53
2023-01-11T10:19:36.508Z,9.37
2023-01-11T10:22:10.447Z,14.40
2023-01-11T10:24:42.798Z,8.20
2023-01-11T10:27:21.863Z,8.60
2023-01-11T10:30:12.798Z,13.07
2023-01-11T10:33:03.286Z,14.03
2023-01-11T10:35:55.881Z,9.63
2023-01-11T10:38:48.909Z,8.80
2023-01-11T10:41:26.074Z,9.63
2023-01-11T10:44:05.069Z,11.20
2023-01-11T10:46:39.820Z,8.70
2023-01-11T10:49:26.814Z,8.93
2023-01-11T10:51:59.272Z,16.73
2023-01-11T10:54:31.952Z,11.30
2023-01-11T10:57:13.447Z,13.40
2023-01-11T11:00:01.392Z,8.33
2023-01-11T11:02:49.244Z,6.13
2023-01-11T11:05:30.671Z,9.33
2023-01-11T11:08:02.790Z,10.03
2023-01-11T11:10:35.614Z,10.00
2023-01-11T11:13:12.025Z,14.00
2023-01-11T11:15:46.597Z,11.13
2023-01-11T11:18:15.924Z,12.23
2023-01-11T11:20:46.163Z,8.37
2023-01-11T11:23:17.477Z,8.33
2023-01-11T11:25:49.638Z,15.77
2023-01-11T11:28:27.635Z,16.47
2023-01-11T11:30:58.313Z,16.17
2023-01-11T11:33:34.925Z,16.30
2023-01-11T11:36:05.304Z,12.50
2023-01-11T11:38:34.988Z,19.50
2023-01-11T11:41:08.187Z,18.80
2023-01-11T11:43:37.696Z,9.77
2023-01-11T11:46:19.935Z,16.60
2023-01-11T11:49:11.571Z,14.30
2023-01-11T11:51:42.207Z,10.93
2023-01-11T11:54:20.281Z,10.57
2023-01-11T11:56:49.094Z,17.13
2023-01-11T11:59:19.501Z,14.73
2023-01-11T12:01:50.029Z,8.10
2023-01-11T12:04:20.103Z,12.97
2023-01-11T12:07:04.813Z,11.23
2023-01-11T12:09:35.184Z,13.47
2023-01-11T12:12:03.821Z,15.20
2023-01-11T12:14:35.113Z,14.93
2023-01-11T12:17:23.256Z,12.20
2023-01-11T12:19:51.191Z,5.17
2023-01-11T12:22:23.168Z,13.50
2023-01-11T12:25:09.541Z,14.10
2023-01-11T12:27:43.608Z,12.13
2023-01-11T12:30:22.828Z,10.43
2023-01-11T12:33:15.312Z,14.13
2023-01-11T12:35:55.849Z,13.07
2023-01-11T12:38:37.344Z,8.00
2023-01-11T12:41:20.823Z,10.53
2023-01-11T12:44:00.409Z,14.10
2023-01-11T12:46:43.324Z,15.77
2023-01-11T12:49:28.261Z,14.27
2023-01-11T12:52:08.455Z,11.10
2023-01-11T12:54:52.572Z,8.17
2023-01-11T12:57:28.829Z,13.50
2023-01-11T13:00:23.410Z,11.87
2023-01-11T13:03:19.644Z,10.10
2023-01-11T13:05:57.830Z,10.30
2023-01-11T13:08:36.029Z,10.57
2023-01-11T13:11:35.032Z,14.43
2023-01-11T13:14:15.655Z,14.70
2023-01-11T13:16:54.102Z,13.20
2023-01-11T13:19:27.550Z,8.57
2023-01-11T13:21:56.935Z,13.97
2023-01-11T13:24:28.694Z,10.03
2023-01-11T13:27:02.585Z,5.30
2023-01-11T13:29:34.261Z,12.53
2023-01-11T13:32:07.650Z,10.97
2023-01-11T13:34:39.888Z,12.00
2023-01-11T13:37:13.782Z,9.67
2023-01-11T13:39:46.908Z,16.30
2023-01-11T13:42:21.604Z,17.97
2023-01-11T13:44:56.399Z,19.67
2023-01-11T13:47:31.675Z,22.73
2023-01-11T13:50:03.815Z,8.30
2023-01-11T13:52:53.845Z,44.33
2023-01-11T13:55:27.135Z,29.40
2023-01-11T13:58:01.373Z,13.10
2023-01-11T14:00:36.464Z,31.83
2023-01-11T14:03:17.098Z,17.37
2023-01-11T14:05:53.982Z,16.93
2023-01-11T14:08:52.466Z,16.60
2023-01-11T14:11:27.105Z,20.23
2023-01-11T14:14:26.073Z,12.97
2023-01-11T14:17:10.954Z,15.30
2023-01-11T14:19:44.685Z,14.77
2023-01-11T14:22:19.480Z,20.83
2023-01-11T14:24:58.705Z,21.97
2023-01-11T14:27:49.092Z,70.97
2023-01-11T14:31:05.861Z,31.70
2023-01-11T14:33:57.617Z,37.97
2023-01-11T14:36:51.557Z,22.50
2023-01-11T14:39:43.190Z,28.70
2023-01-11T14:42:34.261Z,43.40
2023-01-11T14:45:30.281Z,19.03
2023-01-11T14:48:19.126Z,15.97
2023-01-11T14:51:08.636Z,22.77
2023-01-11T14:53:42.343Z,17.07
2023-01-11T14:56:52.365Z,13.73
2023-01-11T14:59:34.960Z,17.97
2023-01-11T15:02:26.161Z,18.47
2023-01-11T15:05:34.826Z,16.70
2023-01-11T15:08:17.425Z,13.77
2023-01-11T15:10:52.684Z,21.87
2023-01-11T15:13:23.787Z,19.97
2023-01-11T15:16:10.133Z,10.90
2023-01-11T15:18:46.469Z,13.83
2023-01-11T15:21:20.067Z,17.80
2023-01-11T15:23:51.144Z,17.60
2023-01-11T15:26:20.785Z,23.97
2023-01-11T15:28:53.799Z,16.10
2023-01-11T15:31:38.974Z,15.47
2023-01-11T15:34:23.426Z,14.80
2023-01-11T15:37:32.270Z,17.10
2023-01-11T15:40:05.044Z,17.37
2023-01-11T15:43:08.603Z,15.07
2023-01-11T15:46:27.279Z,19.53
2023-01-11T15:49:20.300Z,19.83
2023-01-11T15:52:18.081Z,23.07
2023-01-11T15:55:15.275Z,19.33
2023-01-11T15:58:07.325Z,12.63
2023-01-11T16:00:56.364Z,20.87
2023-01-11T16:03:54.634Z,16.60
2023-01-11T16:06:33.416Z,14.70
2023-01-11T16:09:25.047Z,22.40
2023-01-11T16:12:06.399Z,32.50
2023-01-11T16:15:03.210Z,28.07
2023-01-11T16:17:31.253Z,32.80
2023-01-11T16:19:59.424Z,31.97
2023-01-11T16:22:29.281Z,31.43
2023-01-11T16:25:01.360Z,25.53
2023-01-11T16:27:34.406Z,37.93
2023-01-11T16:30:02.985Z,51.40
2023-01-11T16:32:33.464Z,48.90
2023-01-11T16:35:02.997Z,29.53
2023-01-11T16:37:37.522Z,25.07
2023-01-11T16:40:14.418Z,40.07
2023-01-11T16:42:49.898Z,36.70
2023-01-11T16:45:21.520Z,19.60
2023-01-11T16:48:06.714Z,18.07
2023-01-11T16:50:35.759Z,19.47
2023-01-11T16:53:04.936Z,21.27
2023-01-11T16:55:36.932Z,19.10
2023-01-11T16:58:17.667Z,33.50
2023-01-11T17:00:58.810Z,28.33
2023-01-11T17:03:28.167Z,32.20
2023-01-11T17:05:59.084Z,40.27
2023-01-11T17:08:29.481Z,39.33
2023-01-11T17:11:00.031Z,31.37
2023-01-11T17:14:08.589Z,36.50
2023-01-11T17:16:39.952Z,27.23
2023-01-11T17:19:13.983Z,22.07
2023-01-11T17:21:48.491Z,16.27
2023-01-11T17:24:17.963Z,21.70
2023-01-11T17:26:48.796Z,31.47
2023-01-11T17:29:28.067Z,58.43
2023-01-11T17:31:57.998Z,32.77
2023-01-11T17:34:32.630Z,24.53
2023-01-11T17:37:03.254Z,19.30
2023-01-11T17:39:34.593Z,27.80
2023-01-11T17:42:23.367Z,27.67
2023-01-11T17:45:12.576Z,23.80
2023-01-11T17:47:42.219Z,22.00
2023-01-11T17:50:24.756Z,20.83
2023-01-11T17:53:01.955Z,47.20
2023-01-11T17:55:29.943Z,38.80
2023-01-11T17:58:18.087Z,26.40
2023-01-11T18:01:15.658Z,32.67
2023-01-11T18:03:45.895Z,28.13
2023-01-11T18:06:19.622Z,27.73
2023-01-11T18:08:50.937Z,64.57
2023-01-11T18:11:27.223Z,56.27
2023-01-11T18:13:57.376Z,28.27
2023-01-11T18:16:27.580Z,32.33
2023-01-11T18:18:56.512Z,28.97
2023-01-11T18:21:52.235Z,26.00
2023-01-11T18:24:29.283Z,26.00
2023-01-11T18:27:14.436Z,17.50
2023-01-11T18:29:50.578Z,76.67
2023-01-11T18:32:20.851Z,73.97
2023-01-11T18:34:52.005Z,36.80
2023-01-11T18:37:20.787Z,35.13
2023-01-11T18:39:49.038Z,29.90
2023-01-11T18:42:20.158Z,24.30
2023-01-11T18:44:49.609Z,24.50
2023-01-11T18:47:21.170Z,32.57
2023-01-11T18:49:49.972Z,58.37
2023-01-11T18:52:18.768Z,53.53
2023-01-11T18:54:47.240Z,35.43
2023-01-11T18:57:15.202Z,32.17
2023-01-11T18:59:43.245Z,30.70
2023-01-11T19:02:23.054Z,27.30
2023-01-11T19:04:51.540Z,32.57
2023-01-11T19:07:19.785Z,71.90
2023-01-11T19:09:47.823Z,59.87
2023-01-11T19:12:16.315Z,36.00
2023-01-11T19:14:44.779Z,40.10
2023-01-11T19:17:13.731Z,28.07
2023-01-11T19:19:43.359Z,27.97
2023-01-11T19:22:12.551Z,31.07
2023-01-11T19:24:40.618Z,26.70
2023-01-11T19:27:08.739Z,31.57
2023-01-11T19:29:36.701Z,55.47
2023-01-11T19:32:04.847Z,58.93
2023-01-11T19:34:34.115Z,95.07
2023-01-11T19:37:03.393Z,47.63
2023-01-11T19:39:31.325Z,20.97
2023-01-11T19:42:01.511Z,26.67
2023-01-11T19:44:32.334Z,26.40
2023-01-11T19:47:10.797Z,31.87
2023-01-11T19:49:39.812Z,28.10
2023-01-11T19:52:12.761Z,25.87
2023-01-11T19:54:42.210Z,24.63
2023-01-11T19:57:11.608Z,73.30
2023-01-11T19:59:39.581Z,19.83
2023-01-11T20:02:07.867Z,30.20
2023-01-11T20:04:37.121Z,29.70
2023-01-11T20:07:05.483Z,27.47
2023-01-11T20:09:37.548Z,32.40
2023-01-11T20:12:06.401Z,26.30
2023-01-11T20:14:34.928Z,24.23
2023-01-11T20:17:02.927Z,41.43
2023-01-11T20:19:30.839Z,24.40
2023-01-11T20:21:58.854Z,33.80
2023-01-11T20:24:29.460Z,30.33
2023-01-11T20:27:00.687Z,48.00
2023-01-11T20:29:28.918Z,29.73
2023-01-11T20:32:13.453Z,28.23
2023-01-11T20:34:45.195Z,32.60
2023-01-11T20:37:13.111Z,29.43
2023-01-11T20:39:41.067Z,29.40
2023-01-11T20:42:12.469Z,31.00
2023-01-11T20:44:40.405Z,93.07
2023-01-11T20:47:08.315Z,34.17
2023-01-11T20:49:36.248Z,29.70
2023-01-11T20:52:04.197Z,31.40
2023-01-11T20:54:32.218Z,30.50
2023-01-11T20:57:05.329Z,29.63
2023-01-11T20:59:34.882Z,30.27
2023-01-11T21:02:02.808Z,35.30
2023-01-11T21:04:30.969Z,32.63
2023-01-11T21:06:58.893Z,25.43
2023-01-11T21:09:26.826Z,25.97
2023-01-11T21:11:54.785Z,24.03
2023-01-11T21:14:23.329Z,26.17
2023-01-11T21:16:55.094Z,23.57
2023-01-11T21:19:23.365Z,23.30
2023-01-11T21:21:51.393Z,26.23
2023-01-11T21:24:19.328Z,28.40
2023-01-11T21:26:48.327Z,26.80
2023-01-11T21:29:16.253Z,22.27
2023-01-11T21:31:44.267Z,27.60
2023-01-11T21:34:14.190Z,26.57
2023-01-11T21:36:43.433Z,20.23
2023-01-11T21:39:14.550Z,25.83
2023-01-11T21:41:58.760Z,30.27
2023-01-11T21:44:32.317Z,26.77
2023-01-11T21:47:00.989Z,23.37
2023-01-11T21:49:30.359Z,23.57
2023-01-11T21:51:58.607Z,22.20
2023-01-11T21:54:26.533Z,26.30
2023-01-11T21:56:54.457Z,26.50
2023-01-11T21:59:22.514Z,23.60
2023-01-11T22:01:50.642Z,23.30
2023-01-11T22:04:20.563Z,29.17
2023-01-11T22:06:54.373Z,28.57
2023-01-11T22:09:23.222Z,25.80
2023-01-11T22:11:51.437Z,22.93
2023-01-11T22:14:19.388Z,21.97
2023-01-11T22:16:47.294Z,33.97
2023-01-11T22:19:15.567Z,36.83
2023-01-11T22:21:43.562Z,30.90
2023-01-11T22:24:17.094Z,29.20
2023-01-11T22:26:45.107Z,29.57
2023-01-11T22:29:14.840Z,27.60
2023-01-11T22:31:44.937Z,27.50
2023-01-11T22:34:13.732Z,24.87
2023-01-11T22:36:42.180Z,24.87
2023-01-11T22:39:10.226Z,26.80
2023-01-11T22:41:40.511Z,23.10
2023-01-11T22:44:08.898Z,28.77
2023-01-11T22:46:36.903Z,25.17
2023-01-11T22:49:06.047Z,24.77
2023-01-11T22:51:34.359Z,21.77
2023-01-11T22:54:02.561Z,26.53
2023-01-11T22:56:31.054Z,22.07
2023-01-11T22:59:01.023Z,24.00
2023-01-11T23:01:30.621Z,22.90
2023-01-11T23:03:59.556Z,22.90
2023-01-11T23:06:29.467Z,20.27
2023-01-11T23:08:58.243Z,23.97
2023-01-11T23:11:46.036Z,21.77
2023-01-11T23:14:17.300Z,22.67
2023-01-11T23:16:46.972Z,21.23
2023-01-11T23:19:16.458Z,23.10
2023-01-11T23:21:45.506Z,23.37
2023-01-11T23:24:15.508Z,21.83
2023-01-11T23:26:43.730Z,21.67
2023-01-11T23:29:11.832Z,18.47
2023-01-11T23:31:42.741Z,23.83
2023-01-11T23:34:12.332Z,25.67
2023-01-11T23:36:42.127Z,24.43
2023-01-11T23:39:13.414Z,20.87
2023-01-11T23:41:59.086Z,26.90
2023-01-11T23:44:27.050Z,18.77
2023-01-11T23:47:14.004Z,23.17
2023-01-11T23:49:43.235Z,21.50
2023-01-11T23:52:11.225Z,25.77
2023-01-11T23:54:39.226Z,27.43
2023-01-11T23:57:07.329Z,24.10
2023-01-11T23:59:35.372Z,23.27
